sensor_id;sensor_type;location;lat;lon;timestamp;P1;durP1;ratioP1;P2;durP2;ratioP2
27804;SDS011;15183;51.350;11.102;2023-04-19T00:02:18;4.60;;;3.47;;
27804;SDS011;15183;51.350;11.102;2023-04-19T00:04:44;4.80;;;3.90;;
27804;SDS011;15183;51.350;11.102;2023-04-19T00:07:12;3.90;;;3.50;;
27804;SDS011;15183;51.350;11.102;2023-04-19T00:09:38;3.53;;;3.00;;
27804;SDS011;15183;51.350;11.102;2023-04-19T00:12:05;3.55;;;3.20;;
27804;SDS011;15183;51.350;11.102;2023-04-19T00:14:31;6.75;;;3.80;;
27804;SDS011;15183;51.350;11.102;2023-04-19T00:16:57;4.78;;;3.53;;
27804;SDS011;15183;51.350;11.102;2023-04-19T00:19:24;5.75;;;3.70;;
27804;SDS011;15183;51.350;11.102;2023-04-19T00:21:50;5.55;;;3.67;;
27804;SDS011;15183;51.350;11.102;2023-04-19T00:24:17;7.13;;;4.60;;
27804;SDS011;15183;51.350;11.102;2023-04-19T00:26:43;4.78;;;3.42;;
27804;SDS011;15183;51.350;11.102;2023-04-19T00:29:09;3.88;;;2.70;;
27804;SDS011;15183;51.350;11.102;2023-04-19T00:31:36;3.30;;;2.92;;
27804;SDS011;15183;51.350;11.102;2023-04-19T00:34:04;5.47;;;4.03;;
27804;SDS011;15183;51.350;11.102;2023-04-19T00:36:31;6.35;;;3.85;;
27804;SDS011;15183;51.350;11.102;2023-04-19T00:38:57;4.65;;;3.53;;
27804;SDS011;15183;51.350;11.102;2023-04-19T00:41:23;4.63;;;4.10;;
27804;SDS011;15183;51.350;11.102;2023-04-19T00:43:50;4.70;;;3.70;;
27804;SDS011;15183;51.350;11.102;2023-04-19T00:46:16;7.07;;;3.85;;
27804;SDS011;15183;51.350;11.102;2023-04-19T00:48:43;4.93;;;3.97;;
27804;SDS011;15183;51.350;11.102;2023-04-19T00:51:09;7.65;;;4.57;;
27804;SDS011;15183;51.350;11.102;2023-04-19T00:53:37;3.95;;;3.58;;
27804;SDS011;15183;51.350;11.102;2023-04-19T00:56:05;5.75;;;3.67;;
27804;SDS011;15183;51.350;11.102;2023-04-19T00:58:32;4.93;;;4.00;;
27804;SDS011;15183;51.350;11.102;2023-04-19T01:00:59;5.20;;;4.03;;
27804;SDS011;15183;51.350;11.102;2023-04-19T01:03:25;5.68;;;4.55;;
27804;SDS011;15183;51.350;11.102;2023-04-19T01:05:52;5.90;;;4.05;;
27804;SDS011;15183;51.350;11.102;2023-04-19T01:08:18;5.13;;;4.50;;
27804;SDS011;15183;51.350;11.102;2023-04-19T01:10:45;4.93;;;3.90;;
27804;SDS011;15183;51.350;11.102;2023-04-19T01:13:11;5.72;;;3.72;;
27804;SDS011;15183;51.350;11.102;2023-04-19T01:15:37;4.88;;;3.17;;
27804;SDS011;15183;51.350;11.102;2023-04-19T01:18:04;6.00;;;4.72;;
27804;SDS011;15183;51.350;11.102;2023-04-19T01:20:31;5.13;;;4.13;;
27804;SDS011;15183;51.350;11.102;2023-04-19T01:22:57;6.50;;;4.18;;
27804;SDS011;15183;51.350;11.102;2023-04-19T01:25:23;4.53;;;3.58;;
27804;SDS011;15183;51.350;11.102;2023-04-19T01:27:51;6.20;;;3.47;;
27804;SDS011;15183;51.350;11.102;2023-04-19T01:30:18;6.15;;;4.20;;
27804;SDS011;15183;51.350;11.102;2023-04-19T01:32:44;5.85;;;4.07;;
27804;SDS011;15183;51.350;11.102;2023-04-19T01:35:11;5.25;;;4.30;;
27804;SDS011;15183;51.350;11.102;2023-04-19T01:37:37;5.45;;;4.03;;
27804;SDS011;15183;51.350;11.102;2023-04-19T01:40:04;5.05;;;4.00;;
27804;SDS011;15183;51.350;11.102;2023-04-19T01:42:31;5.78;;;3.67;;
27804;SDS011;15183;51.350;11.102;2023-04-19T01:44:57;5.35;;;4.30;;
27804;SDS011;15183;51.350;11.102;2023-04-19T01:47:24;5.45;;;4.05;;
27804;SDS011;15183;51.350;11.102;2023-04-19T01:49:50;6.20;;;4.93;;
27804;SDS011;15183;51.350;11.102;2023-04-19T01:52:17;7.63;;;4.70;;
27804;SDS011;15183;51.350;11.102;2023-04-19T01:54:43;8.60;;;5.10;;
27804;SDS011;15183;51.350;11.102;2023-04-19T01:57:09;6.60;;;5.18;;
27804;SDS011;15183;51.350;11.102;2023-04-19T01:59:36;8.23;;;4.75;;
27804;SDS011;15183;51.350;11.102;2023-04-19T02:02:05;7.13;;;4.72;;
27804;SDS011;15183;51.350;11.102;2023-04-19T02:04:33;7.68;;;4.07;;
27804;SDS011;15183;51.350;11.102;2023-04-19T02:07:00;6.93;;;4.68;;
27804;SDS011;15183;51.350;11.102;2023-04-19T02:09:26;7.07;;;5.35;;
27804;SDS011;15183;51.350;11.102;2023-04-19T02:11:53;6.20;;;4.57;;
27804;SDS011;15183;51.350;11.102;2023-04-19T02:14:19;7.75;;;5.18;;
27804;SDS011;15183;51.350;11.102;2023-04-19T02:16:46;7.68;;;5.40;;
27804;SDS011;15183;51.350;11.102;2023-04-19T02:19:13;8.15;;;5.88;;
27804;SDS011;15183;51.350;11.102;2023-04-19T02:21:39;7.43;;;4.97;;
27804;SDS011;15183;51.350;11.102;2023-04-19T02:24:06;7.78;;;5.35;;
27804;SDS011;15183;51.350;11.102;2023-04-19T02:26:32;9.07;;;5.50;;
27804;SDS011;15183;51.350;11.102;2023-04-19T02:28:59;6.05;;;4.80;;
27804;SDS011;15183;51.350;11.102;2023-04-19T02:31:25;6.75;;;4.60;;
27804;SDS011;15183;51.350;11.102;2023-04-19T02:33:52;8.10;;;4.60;;
27804;SDS011;15183;51.350;11.102;2023-04-19T02:36:18;7.70;;;4.50;;
27804;SDS011;15183;51.350;11.102;2023-04-19T02:38:44;9.07;;;4.03;;
27804;SDS011;15183;51.350;11.102;2023-04-19T02:41:11;9.68;;;5.05;;
27804;SDS011;15183;51.350;11.102;2023-04-19T02:43:37;7.43;;;4.35;;
27804;SDS011;15183;51.350;11.102;2023-04-19T02:46:04;6.97;;;4.70;;
27804;SDS011;15183;51.350;11.102;2023-04-19T02:48:31;7.10;;;4.53;;
27804;SDS011;15183;51.350;11.102;2023-04-19T02:50:57;5.93;;;4.72;;
27804;SDS011;15183;51.350;11.102;2023-04-19T02:53:24;9.65;;;4.70;;
27804;SDS011;15183;51.350;11.102;2023-04-19T02:55:50;7.38;;;4.28;;
27804;SDS011;15183;51.350;11.102;2023-04-19T02:58:16;6.68;;;4.75;;
27804;SDS011;15183;51.350;11.102;2023-04-19T03:00:43;9.75;;;4.55;;
27804;SDS011;15183;51.350;11.102;2023-04-19T03:03:09;8.85;;;4.70;;
27804;SDS011;15183;51.350;11.102;2023-04-19T03:05:36;10.18;;;4.80;;
27804;SDS011;15183;51.350;11.102;2023-04-19T03:08:02;9.10;;;4.50;;
27804;SDS011;15183;51.350;11.102;2023-04-19T03:10:29;6.07;;;4.38;;
27804;SDS011;15183;51.350;11.102;2023-04-19T03:12:55;7.22;;;4.38;;
27804;SDS011;15183;51.350;11.102;2023-04-19T03:15:22;7.60;;;4.30;;
27804;SDS011;15183;51.350;11.102;2023-04-19T03:17:48;6.55;;;4.78;;
27804;SDS011;15183;51.350;11.102;2023-04-19T03:20:14;8.82;;;5.30;;
27804;SDS011;15183;51.350;11.102;2023-04-19T03:22:41;8.38;;;5.30;;
27804;SDS011;15183;51.350;11.102;2023-04-19T03:25:08;11.90;;;5.85;;
27804;SDS011;15183;51.350;11.102;2023-04-19T03:27:37;8.07;;;4.55;;
27804;SDS011;15183;51.350;11.102;2023-04-19T03:30:03;7.57;;;5.22;;
27804;SDS011;15183;51.350;11.102;2023-04-19T03:32:31;8.57;;;5.50;;
27804;SDS011;15183;51.350;11.102;2023-04-19T03:34:58;11.02;;;5.53;;
27804;SDS011;15183;51.350;11.102;2023-04-19T03:37:24;8.00;;;4.88;;
27804;SDS011;15183;51.350;11.102;2023-04-19T03:39:51;11.60;;;5.63;;
27804;SDS011;15183;51.350;11.102;2023-04-19T03:42:17;7.07;;;4.53;;
27804;SDS011;15183;51.350;11.102;2023-04-19T03:44:43;7.82;;;4.63;;
27804;SDS011;15183;51.350;11.102;2023-04-19T03:47:10;6.82;;;4.13;;
27804;SDS011;15183;51.350;11.102;2023-04-19T03:49:36;7.25;;;3.90;;
27804;SDS011;15183;51.350;11.102;2023-04-19T03:52:03;7.10;;;3.75;;
27804;SDS011;15183;51.350;11.102;2023-04-19T03:54:29;6.60;;;3.22;;
27804;SDS011;15183;51.350;11.102;2023-04-19T03:56:56;9.07;;;3.95;;
27804;SDS011;15183;51.350;11.102;2023-04-19T03:59:22;5.90;;;3.28;;
27804;SDS011;15183;51.350;11.102;2023-04-19T04:01:48;7.55;;;4.15;;
27804;SDS011;15183;51.350;11.102;2023-04-19T04:04:15;7.18;;;5.25;;
27804;SDS011;15183;51.350;11.102;2023-04-19T04:06:41;7.32;;;5.00;;
27804;SDS011;15183;51.350;11.102;2023-04-19T04:09:08;8.32;;;4.10;;
27804;SDS011;15183;51.350;11.102;2023-04-19T04:11:34;5.70;;;3.30;;
27804;SDS011;15183;51.350;11.102;2023-04-19T04:14:01;4.38;;;3.28;;
27804;SDS011;15183;51.350;11.102;2023-04-19T04:16:28;6.00;;;3.28;;
27804;SDS011;15183;51.350;11.102;2023-04-19T04:18:55;5.40;;;2.80;;
27804;SDS011;15183;51.350;11.102;2023-04-19T04:21:21;4.68;;;2.90;;
27804;SDS011;15183;51.350;11.102;2023-04-19T04:23:49;4.25;;;2.80;;
27804;SDS011;15183;51.350;11.102;2023-04-19T04:26:17;5.68;;;2.92;;
27804;SDS011;15183;51.350;11.102;2023-04-19T04:28:44;4.80;;;2.80;;
27804;SDS011;15183;51.350;11.102;2023-04-19T04:31:11;4.15;;;2.67;;
27804;SDS011;15183;51.350;11.102;2023-04-19T04:33:37;4.82;;;2.63;;
27804;SDS011;15183;51.350;11.102;2023-04-19T04:36:04;3.33;;;2.30;;
27804;SDS011;15183;51.350;11.102;2023-04-19T04:38:30;3.55;;;2.70;;
27804;SDS011;15183;51.350;11.102;2023-04-19T04:40:57;6.07;;;3.20;;
27804;SDS011;15183;51.350;11.102;2023-04-19T04:43:24;6.25;;;3.17;;
27804;SDS011;15183;51.350;11.102;2023-04-19T04:45:53;4.80;;;3.00;;
27804;SDS011;15183;51.350;11.102;2023-04-19T04:48:22;4.60;;;2.40;;
27804;SDS011;15183;51.350;11.102;2023-04-19T04:50:49;5.00;;;3.22;;
27804;SDS011;15183;51.350;11.102;2023-04-19T04:53:15;7.15;;;2.35;;
27804;SDS011;15183;51.350;11.102;2023-04-19T04:55:41;5.30;;;2.25;;
27804;SDS011;15183;51.350;11.102;2023-04-19T04:58:08;9.13;;;4.15;;
27804;SDS011;15183;51.350;11.102;2023-04-19T05:00:34;9.63;;;3.38;;
27804;SDS011;15183;51.350;11.102;2023-04-19T05:03:01;8.52;;;4.30;;
27804;SDS011;15183;51.350;11.102;2023-04-19T05:05:27;5.50;;;3.38;;
27804;SDS011;15183;51.350;11.102;2023-04-19T05:07:54;4.80;;;2.50;;
27804;SDS011;15183;51.350;11.102;2023-04-19T05:10:20;3.83;;;2.30;;
27804;SDS011;15183;51.350;11.102;2023-04-19T05:12:47;4.45;;;2.17;;
27804;SDS011;15183;51.350;11.102;2023-04-19T05:15:13;2.83;;;1.95;;
27804;SDS011;15183;51.350;11.102;2023-04-19T05:17:40;3.78;;;2.08;;
27804;SDS011;15183;51.350;11.102;2023-04-19T05:20:07;6.50;;;3.20;;
27804;SDS011;15183;51.350;11.102;2023-04-19T05:22:34;4.53;;;2.22;;
27804;SDS011;15183;51.350;11.102;2023-04-19T05:25:00;2.72;;;2.17;;
27804;SDS011;15183;51.350;11.102;2023-04-19T05:27:27;5.28;;;2.60;;
27804;SDS011;15183;51.350;11.102;2023-04-19T05:29:53;3.78;;;2.20;;
27804;SDS011;15183;51.350;11.102;2023-04-19T05:32:20;6.35;;;4.07;;
27804;SDS011;15183;51.350;11.102;2023-04-19T05:34:46;9.68;;;5.68;;
27804;SDS011;15183;51.350;11.102;2023-04-19T05:37:13;4.28;;;2.92;;
27804;SDS011;15183;51.350;11.102;2023-04-19T05:39:39;6.18;;;2.92;;
27804;SDS011;15183;51.350;11.102;2023-04-19T05:42:05;7.53;;;4.72;;
27804;SDS011;15183;51.350;11.102;2023-04-19T05:44:32;9.60;;;5.22;;
27804;SDS011;15183;51.350;11.102;2023-04-19T05:46:58;4.35;;;2.25;;
27804;SDS011;15183;51.350;11.102;2023-04-19T05:49:25;3.42;;;2.53;;
27804;SDS011;15183;51.350;11.102;2023-04-19T05:51:51;6.22;;;3.47;;
27804;SDS011;15183;51.350;11.102;2023-04-19T05:54:20;2.85;;;2.15;;
27804;SDS011;15183;51.350;11.102;2023-04-19T05:56:46;4.00;;;2.28;;
27804;SDS011;15183;51.350;11.102;2023-04-19T05:59:12;3.78;;;2.17;;
27804;SDS011;15183;51.350;11.102;2023-04-19T06:01:39;3.45;;;2.40;;
27804;SDS011;15183;51.350;11.102;2023-04-19T06:04:05;5.95;;;2.63;;
27804;SDS011;15183;51.350;11.102;2023-04-19T06:06:32;3.33;;;2.42;;
27804;SDS011;15183;51.350;11.102;2023-04-19T06:12:17;5.82;;;2.42;;
27804;SDS011;15183;51.350;11.102;2023-04-19T06:14:43;4.57;;;2.15;;
27804;SDS011;15183;51.350;11.102;2023-04-19T06:17:10;6.68;;;2.72;;
27804;SDS011;15183;51.350;11.102;2023-04-19T06:19:36;5.72;;;2.97;;
27804;SDS011;15183;51.350;11.102;2023-04-19T06:22:03;2.90;;;2.20;;
27804;SDS011;15183;51.350;11.102;2023-04-19T06:24:30;4.25;;;2.45;;
27804;SDS011;15183;51.350;11.102;2023-04-19T06:26:56;3.90;;;2.58;;
27804;SDS011;15183;51.350;11.102;2023-04-19T06:29:23;4.50;;;2.53;;
27804;SDS011;15183;51.350;11.102;2023-04-19T06:31:50;4.38;;;2.15;;
27804;SDS011;15183;51.350;11.102;2023-04-19T06:34:16;3.90;;;2.20;;
27804;SDS011;15183;51.350;11.102;2023-04-19T06:36:52;4.28;;;2.08;;
27804;SDS011;15183;51.350;11.102;2023-04-19T06:39:18;3.80;;;2.22;;
27804;SDS011;15183;51.350;11.102;2023-04-19T06:41:45;3.00;;;1.92;;
27804;SDS011;15183;51.350;11.102;2023-04-19T06:44:11;4.63;;;2.50;;
27804;SDS011;15183;51.350;11.102;2023-04-19T06:46:38;4.35;;;2.35;;
27804;SDS011;15183;51.350;11.102;2023-04-19T06:49:04;3.95;;;2.33;;
27804;SDS011;15183;51.350;11.102;2023-04-19T06:51:31;6.72;;;3.25;;
27804;SDS011;15183;51.350;11.102;2023-04-19T06:53:58;2.20;;;2.00;;
27804;SDS011;15183;51.350;11.102;2023-04-19T06:56:40;6.22;;;3.00;;
27804;SDS011;15183;51.350;11.102;2023-04-19T06:59:13;3.47;;;2.17;;
27804;SDS011;15183;51.350;11.102;2023-04-19T07:01:43;3.95;;;1.88;;
27804;SDS011;15183;51.350;11.102;2023-04-19T07:04:11;5.13;;;1.58;;
27804;SDS011;15183;51.350;11.102;2023-04-19T07:06:38;3.45;;;1.95;;
27804;SDS011;15183;51.350;11.102;2023-04-19T07:09:05;3.08;;;1.80;;
27804;SDS011;15183;51.350;11.102;2023-04-19T07:11:33;3.65;;;2.25;;
27804;SDS011;15183;51.350;11.102;2023-04-19T07:13:59;8.88;;;1.92;;
27804;SDS011;15183;51.350;11.102;2023-04-19T07:16:26;5.15;;;1.75;;
27804;SDS011;15183;51.350;11.102;2023-04-19T07:18:52;5.18;;;1.73;;
27804;SDS011;15183;51.350;11.102;2023-04-19T07:21:19;4.78;;;1.98;;
27804;SDS011;15183;51.350;11.102;2023-04-19T07:23:46;3.33;;;2.13;;
27804;SDS011;15183;51.350;11.102;2023-04-19T07:26:12;3.50;;;1.50;;
27804;SDS011;15183;51.350;11.102;2023-04-19T07:28:39;6.30;;;1.92;;
27804;SDS011;15183;51.350;11.102;2023-04-19T07:31:06;4.38;;;2.33;;
27804;SDS011;15183;51.350;11.102;2023-04-19T07:33:32;3.75;;;2.10;;
27804;SDS011;15183;51.350;11.102;2023-04-19T07:35:59;3.67;;;1.88;;
27804;SDS011;15183;51.350;11.102;2023-04-19T07:38:25;4.43;;;1.73;;
27804;SDS011;15183;51.350;11.102;2023-04-19T07:40:51;2.75;;;1.77;;
27804;SDS011;15183;51.350;11.102;2023-04-19T07:43:18;2.25;;;1.65;;
27804;SDS011;15183;51.350;11.102;2023-04-19T07:45:44;6.10;;;1.88;;
27804;SDS011;15183;51.350;11.102;2023-04-19T07:48:11;2.13;;;1.83;;
27804;SDS011;15183;51.350;11.102;2023-04-19T07:50:37;3.47;;;1.80;;
27804;SDS011;15183;51.350;11.102;2023-04-19T07:53:03;4.95;;;2.38;;
27804;SDS011;15183;51.350;11.102;2023-04-19T07:55:30;7.22;;;3.47;;
27804;SDS011;15183;51.350;11.102;2023-04-19T07:57:56;4.50;;;2.17;;
27804;SDS011;15183;51.350;11.102;2023-04-19T08:00:23;4.68;;;1.77;;
27804;SDS011;15183;51.350;11.102;2023-04-19T08:02:49;4.53;;;2.22;;
27804;SDS011;15183;51.350;11.102;2023-04-19T08:05:16;6.97;;;3.28;;
27804;SDS011;15183;51.350;11.102;2023-04-19T08:07:43;4.03;;;2.13;;
27804;SDS011;15183;51.350;11.102;2023-04-19T08:10:10;5.93;;;2.03;;
27804;SDS011;15183;51.350;11.102;2023-04-19T08:16:18;3.30;;;1.98;;
27804;SDS011;15183;51.350;11.102;2023-04-19T08:18:45;5.20;;;1.65;;
27804;SDS011;15183;51.350;11.102;2023-04-19T08:21:13;3.10;;;1.80;;
27804;SDS011;15183;51.350;11.102;2023-04-19T08:23:39;6.18;;;1.90;;
27804;SDS011;15183;51.350;11.102;2023-04-19T08:26:05;4.30;;;1.95;;
27804;SDS011;15183;51.350;11.102;2023-04-19T08:28:32;4.50;;;2.33;;
27804;SDS011;15183;51.350;11.102;2023-04-19T08:30:58;3.38;;;2.05;;
27804;SDS011;15183;51.350;11.102;2023-04-19T08:33:25;2.33;;;1.55;;
27804;SDS011;15183;51.350;11.102;2023-04-19T08:35:52;4.88;;;2.85;;
27804;SDS011;15183;51.350;11.102;2023-04-19T08:38:19;1.80;;;1.55;;
27804;SDS011;15183;51.350;11.102;2023-04-19T08:40:46;4.82;;;1.88;;
27804;SDS011;15183;51.350;11.102;2023-04-19T08:43:18;8.68;;;2.55;;
27804;SDS011;15183;51.350;11.102;2023-04-19T08:45:45;2.33;;;2.00;;
27804;SDS011;15183;51.350;11.102;2023-04-19T08:48:13;5.32;;;2.05;;
27804;SDS011;15183;51.350;11.102;2023-04-19T08:50:41;5.00;;;1.85;;
27804;SDS011;15183;51.350;11.102;2023-04-19T08:53:11;2.72;;;2.15;;
27804;SDS011;15183;51.350;11.102;2023-04-19T08:55:39;4.13;;;1.80;;
27804;SDS011;15183;51.350;11.102;2023-04-19T08:58:08;4.00;;;1.85;;
27804;SDS011;15183;51.350;11.102;2023-04-19T09:00:37;4.43;;;2.05;;
27804;SDS011;15183;51.350;11.102;2023-04-19T09:03:05;7.32;;;1.80;;
27804;SDS011;15183;51.350;11.102;2023-04-19T09:05:33;2.20;;;1.80;;
27804;SDS011;15183;51.350;11.102;2023-04-19T09:08:19;2.38;;;1.95;;
27804;SDS011;15183;51.350;11.102;2023-04-19T09:10:55;2.90;;;2.22;;
27804;SDS011;15183;51.350;11.102;2023-04-19T09:13:23;2.42;;;1.90;;
27804;SDS011;15183;51.350;11.102;2023-04-19T09:15:51;2.83;;;1.83;;
27804;SDS011;15183;51.350;11.102;2023-04-19T09:18:18;4.22;;;2.00;;
27804;SDS011;15183;51.350;11.102;2023-04-19T09:20:45;4.88;;;2.38;;
27804;SDS011;15183;51.350;11.102;2023-04-19T09:23:12;4.80;;;2.35;;
27804;SDS011;15183;51.350;11.102;2023-04-19T09:25:59;4.93;;;2.45;;
27804;SDS011;15183;51.350;11.102;2023-04-19T09:28:27;4.85;;;2.25;;
27804;SDS011;15183;51.350;11.102;2023-04-19T09:30:54;8.65;;;2.80;;
27804;SDS011;15183;51.350;11.102;2023-04-19T09:36:04;6.72;;;2.55;;
27804;SDS011;15183;51.350;11.102;2023-04-19T09:38:53;3.22;;;2.05;;
27804;SDS011;15183;51.350;11.102;2023-04-19T09:43:45;3.15;;;2.45;;
27804;SDS011;15183;51.350;11.102;2023-04-19T09:46:31;5.47;;;2.50;;
27804;SDS011;15183;51.350;11.102;2023-04-19T09:51:54;2.65;;;2.33;;
27804;SDS011;15183;51.350;11.102;2023-04-19T09:54:24;4.72;;;2.28;;
27804;SDS011;15183;51.350;11.102;2023-04-19T09:56:57;3.57;;;2.27;;
27804;SDS011;15183;51.350;11.102;2023-04-19T09:59:23;3.88;;;2.38;;
27804;SDS011;15183;51.350;11.102;2023-04-19T10:01:53;3.83;;;2.10;;
27804;SDS011;15183;51.350;11.102;2023-04-19T10:04:21;6.78;;;2.10;;
27804;SDS011;15183;51.350;11.102;2023-04-19T10:06:48;6.50;;;2.92;;
27804;SDS011;15183;51.350;11.102;2023-04-19T10:09:17;4.35;;;2.65;;
27804;SDS011;15183;51.350;11.102;2023-04-19T10:11:52;7.03;;;2.80;;
27804;SDS011;15183;51.350;11.102;2023-04-19T10:17:54;4.97;;;2.63;;
27804;SDS011;15183;51.350;11.102;2023-04-19T10:23:21;5.97;;;2.50;;
27804;SDS011;15183;51.350;11.102;2023-04-19T10:25:53;5.90;;;2.83;;
27804;SDS011;15183;51.350;11.102;2023-04-19T10:28:22;4.85;;;2.40;;
27804;SDS011;15183;51.350;11.102;2023-04-19T10:30:59;6.65;;;2.13;;
27804;SDS011;15183;51.350;11.102;2023-04-19T10:33:28;2.70;;;2.35;;
27804;SDS011;15183;51.350;11.102;2023-04-19T10:36:02;3.95;;;2.47;;
27804;SDS011;15183;51.350;11.102;2023-04-19T10:38:36;5.60;;;2.40;;
27804;SDS011;15183;51.350;11.102;2023-04-19T10:41:10;5.55;;;2.70;;
27804;SDS011;15183;51.350;11.102;2023-04-19T10:43:37;4.32;;;2.58;;
27804;SDS011;15183;51.350;11.102;2023-04-19T10:46:34;3.63;;;2.63;;
27804;SDS011;15183;51.350;11.102;2023-04-19T10:49:04;6.00;;;2.35;;
27804;SDS011;15183;51.350;11.102;2023-04-19T11:09:26;4.60;;;2.90;;
27804;SDS011;15183;51.350;11.102;2023-04-19T11:12:01;3.85;;;2.63;;
27804;SDS011;15183;51.350;11.102;2023-04-19T11:14:29;4.07;;;2.80;;
27804;SDS011;15183;51.350;11.102;2023-04-19T11:16:59;3.38;;;2.35;;
27804;SDS011;15183;51.350;11.102;2023-04-19T11:19:56;3.08;;;2.30;;
27804;SDS011;15183;51.350;11.102;2023-04-19T11:22:41;5.25;;;3.22;;
27804;SDS011;15183;51.350;11.102;2023-04-19T11:25:12;4.05;;;2.20;;
27804;SDS011;15183;51.350;11.102;2023-04-19T11:27:47;4.20;;;2.97;;
27804;SDS011;15183;51.350;11.102;2023-04-19T11:30:20;3.60;;;2.30;;
27804;SDS011;15183;51.350;11.102;2023-04-19T11:32:55;9.30;;;2.25;;
27804;SDS011;15183;51.350;11.102;2023-04-19T11:35:23;4.90;;;2.90;;
27804;SDS011;15183;51.350;11.102;2023-04-19T11:37:57;3.33;;;2.30;;
27804;SDS011;15183;51.350;11.102;2023-04-19T11:40:24;3.38;;;2.50;;
27804;SDS011;15183;51.350;11.102;2023-04-19T11:42:55;2.42;;;1.98;;
27804;SDS011;15183;51.350;11.102;2023-04-19T11:45:27;4.30;;;2.70;;
27804;SDS011;15183;51.350;11.102;2023-04-19T11:47:59;3.97;;;2.63;;
27804;SDS011;15183;51.350;11.102;2023-04-19T11:50:36;3.80;;;2.60;;
27804;SDS011;15183;51.350;11.102;2023-04-19T11:53:14;4.00;;;2.83;;
27804;SDS011;15183;51.350;11.102;2023-04-19T11:55:51;2.33;;;2.13;;
27804;SDS011;15183;51.350;11.102;2023-04-19T11:58:31;4.20;;;2.33;;
27804;SDS011;15183;51.350;11.102;2023-04-19T12:01:10;4.00;;;2.47;;
27804;SDS011;15183;51.350;11.102;2023-04-19T12:03:49;3.15;;;2.25;;
27804;SDS011;15183;51.350;11.102;2023-04-19T12:08:52;4.72;;;2.80;;
27804;SDS011;15183;51.350;11.102;2023-04-19T12:11:22;3.08;;;1.90;;
27804;SDS011;15183;51.350;11.102;2023-04-19T12:14:10;2.70;;;2.00;;
27804;SDS011;15183;51.350;11.102;2023-04-19T12:16:38;3.08;;;2.38;;
27804;SDS011;15183;51.350;11.102;2023-04-19T12:19:14;5.72;;;1.85;;
27804;SDS011;15183;51.350;11.102;2023-04-19T12:21:43;3.65;;;1.80;;
27804;SDS011;15183;51.350;11.102;2023-04-19T12:27:52;4.50;;;2.10;;
27804;SDS011;15183;51.350;11.102;2023-04-19T12:30:19;6.22;;;2.03;;
27804;SDS011;15183;51.350;11.102;2023-04-19T12:32:45;2.47;;;1.85;;
27804;SDS011;15183;51.350;11.102;2023-04-19T12:35:11;4.25;;;2.17;;
27804;SDS011;15183;51.350;11.102;2023-04-19T12:37:38;8.98;;;2.20;;
27804;SDS011;15183;51.350;11.102;2023-04-19T12:40:04;6.15;;;1.95;;
27804;SDS011;15183;51.350;11.102;2023-04-19T12:42:32;2.90;;;1.90;;
27804;SDS011;15183;51.350;11.102;2023-04-19T12:44:58;4.18;;;1.92;;
27804;SDS011;15183;51.350;11.102;2023-04-19T12:47:25;4.78;;;2.00;;
27804;SDS011;15183;51.350;11.102;2023-04-19T12:49:52;2.45;;;1.80;;
27804;SDS011;15183;51.350;11.102;2023-04-19T12:52:20;7.45;;;2.83;;
27804;SDS011;15183;51.350;11.102;2023-04-19T12:54:47;2.58;;;1.58;;
27804;SDS011;15183;51.350;11.102;2023-04-19T12:57:14;1.98;;;1.67;;
27804;SDS011;15183;51.350;11.102;2023-04-19T12:59:40;3.92;;;2.38;;
27804;SDS011;15183;51.350;11.102;2023-04-19T13:02:07;4.68;;;1.98;;
27804;SDS011;15183;51.350;11.102;2023-04-19T13:04:33;5.22;;;1.63;;
27804;SDS011;15183;51.350;11.102;2023-04-19T13:07:00;5.03;;;2.33;;
27804;SDS011;15183;51.350;11.102;2023-04-19T13:09:27;2.28;;;1.90;;
27804;SDS011;15183;51.350;11.102;2023-04-19T13:11:53;3.67;;;1.90;;
27804;SDS011;15183;51.350;11.102;2023-04-19T13:14:21;5.75;;;2.47;;
27804;SDS011;15183;51.350;11.102;2023-04-19T13:16:47;3.47;;;2.17;;
27804;SDS011;15183;51.350;11.102;2023-04-19T13:19:13;3.88;;;2.30;;
27804;SDS011;15183;51.350;11.102;2023-04-19T13:21:40;7.05;;;2.42;;
27804;SDS011;15183;51.350;11.102;2023-04-19T13:24:07;4.75;;;2.33;;
27804;SDS011;15183;51.350;11.102;2023-04-19T13:26:33;3.50;;;2.30;;
27804;SDS011;15183;51.350;11.102;2023-04-19T13:29:00;6.18;;;2.78;;
27804;SDS011;15183;51.350;11.102;2023-04-19T13:31:26;8.25;;;2.50;;
27804;SDS011;15183;51.350;11.102;2023-04-19T13:33:53;3.30;;;2.08;;
27804;SDS011;15183;51.350;11.102;2023-04-19T13:36:19;5.57;;;2.40;;
27804;SDS011;15183;51.350;11.102;2023-04-19T13:38:46;7.65;;;2.80;;
27804;SDS011;15183;51.350;11.102;2023-04-19T13:41:13;3.53;;;2.75;;
27804;SDS011;15183;51.350;11.102;2023-04-19T13:43:39;6.13;;;2.50;;
27804;SDS011;15183;51.350;11.102;2023-04-19T13:46:05;13.13;;;3.50;;
27804;SDS011;15183;51.350;11.102;2023-04-19T13:48:32;5.53;;;3.10;;
27804;SDS011;15183;51.350;11.102;2023-04-19T13:50:58;5.72;;;2.50;;
27804;SDS011;15183;51.350;11.102;2023-04-19T13:53:25;4.00;;;2.55;;
27804;SDS011;15183;51.350;11.102;2023-04-19T13:55:53;3.45;;;2.60;;
27804;SDS011;15183;51.350;11.102;2023-04-19T13:58:20;5.22;;;2.88;;
27804;SDS011;15183;51.350;11.102;2023-04-19T14:00:49;3.50;;;2.75;;
27804;SDS011;15183;51.350;11.102;2023-04-19T14:03:17;4.35;;;2.72;;
27804;SDS011;15183;51.350;11.102;2023-04-19T14:05:43;3.17;;;2.50;;
27804;SDS011;15183;51.350;11.102;2023-04-19T14:08:10;5.65;;;2.60;;
27804;SDS011;15183;51.350;11.102;2023-04-19T14:10:36;5.80;;;3.35;;
27804;SDS011;15183;51.350;11.102;2023-04-19T14:13:03;4.50;;;2.78;;
27804;SDS011;15183;51.350;11.102;2023-04-19T14:15:30;4.28;;;3.00;;
27804;SDS011;15183;51.350;11.102;2023-04-19T14:17:56;10.07;;;2.55;;
27804;SDS011;15183;51.350;11.102;2023-04-19T14:20:22;6.07;;;2.72;;
27804;SDS011;15183;51.350;11.102;2023-04-19T14:22:49;4.00;;;2.40;;
27804;SDS011;15183;51.350;11.102;2023-04-19T14:25:15;5.75;;;2.60;;
27804;SDS011;15183;51.350;11.102;2023-04-19T14:27:43;2.35;;;1.92;;
27804;SDS011;15183;51.350;11.102;2023-04-19T14:30:09;8.85;;;2.10;;
27804;SDS011;15183;51.350;11.102;2023-04-19T14:32:36;4.45;;;2.65;;
27804;SDS011;15183;51.350;11.102;2023-04-19T14:35:02;5.82;;;3.13;;
27804;SDS011;15183;51.350;11.102;2023-04-19T14:37:29;4.85;;;2.38;;
27804;SDS011;15183;51.350;11.102;2023-04-19T14:39:55;8.77;;;3.95;;
27804;SDS011;15183;51.350;11.102;2023-04-19T14:42:22;6.97;;;3.63;;
27804;SDS011;15183;51.350;11.102;2023-04-19T14:44:49;3.60;;;2.22;;
27804;SDS011;15183;51.350;11.102;2023-04-19T14:47:16;4.03;;;2.47;;
27804;SDS011;15183;51.350;11.102;2023-04-19T14:49:43;6.05;;;2.42;;
27804;SDS011;15183;51.350;11.102;2023-04-19T14:52:09;5.90;;;2.45;;
27804;SDS011;15183;51.350;11.102;2023-04-19T14:54:36;7.93;;;2.90;;
27804;SDS011;15183;51.350;11.102;2023-04-19T14:57:02;3.53;;;2.63;;
27804;SDS011;15183;51.350;11.102;2023-04-19T14:59:29;3.45;;;2.33;;
27804;SDS011;15183;51.350;11.102;2023-04-19T15:01:55;3.40;;;2.63;;
27804;SDS011;15183;51.350;11.102;2023-04-19T15:04:21;5.25;;;2.40;;
27804;SDS011;15183;51.350;11.102;2023-04-19T15:06:48;4.93;;;2.40;;
27804;SDS011;15183;51.350;11.102;2023-04-19T15:09:14;3.33;;;2.50;;
27804;SDS011;15183;51.350;11.102;2023-04-19T15:11:41;4.00;;;2.30;;
27804;SDS011;15183;51.350;11.102;2023-04-19T15:14:07;3.20;;;2.13;;
27804;SDS011;15183;51.350;11.102;2023-04-19T15:16:34;3.22;;;2.10;;
27804;SDS011;15183;51.350;11.102;2023-04-19T15:19:01;2.92;;;2.00;;
27804;SDS011;15183;51.350;11.102;2023-04-19T15:21:27;4.88;;;2.00;;
27804;SDS011;15183;51.350;11.102;2023-04-19T15:23:54;5.30;;;2.60;;